createdAt,value
2017-08-04T00:00:40.680Z,1007.61
2017-08-04T00:01:50.293Z,1007.63
2017-08-04T00:03:00.225Z,1007.61
2017-08-04T00:04:10.443Z,1007.67
2017-08-04T00:05:20.039Z,1007.65
2017-08-04T00:06:30.254Z,1007.66
2017-08-04T00:07:40.177Z,1007.67
2017-08-04T00:08:49.776Z,1007.72
2017-08-04T00:09:59.695Z,1007.75
2017-08-04T00:11:09.622Z,1007.68
2017-08-04T00:12:19.845Z,1007.69
2017-08-04T00:13:29.456Z,1007.72
2017-08-04T00:14:39.384Z,1007.68
2017-08-04T00:15:49.292Z,1007.69
2017-08-04T00:16:59.219Z,1007.65
2017-08-04T00:18:09.455Z,1007.65
2017-08-04T00:19:19.676Z,1007.66
2017-08-04T00:20:29.615Z,1007.61
2017-08-04T00:21:39.223Z,1007.58
2017-08-04T00:22:49.136Z,1007.59
2017-08-04T00:23:59.056Z,1007.53
2017-08-04T00:25:08.357Z,1007.55
2017-08-04T00:26:18.263Z,1007.51
2017-08-04T00:27:27.872Z,1007.53
2017-08-04T00:28:37.816Z,1007.54
2017-08-04T00:29:47.748Z,1007.53
2017-08-04T00:30:57.973Z,1007.56
2017-08-04T00:32:08.200Z,1007.53
2017-08-04T00:33:18.429Z,1007.52
2017-08-04T00:34:28.035Z,1007.49
2017-08-04T00:35:37.954Z,1007.52
2017-08-04T00:36:48.190Z,1007.52
2017-08-04T00:37:58.416Z,1007.56
2017-08-04T00:39:08.043Z,1007.49
2017-08-04T00:40:17.979Z,1007.52
2017-08-04T00:41:27.925Z,1007.48
2017-08-04T00:42:37.541Z,1007.51
2017-08-04T00:43:48.145Z,1007.49
2017-08-04T00:44:58.057Z,1007.44
2017-08-04T00:46:07.970Z,1007.42
2017-08-04T00:47:17.890Z,1007.42
2017-08-04T00:48:27.806Z,1007.45
2017-08-04T00:49:37.422Z,1007.48
2017-08-04T00:50:47.650Z,1007.47
2017-08-04T00:51:57.560Z,1007.46
2017-08-04T00:53:07.788Z,1007.45
2017-08-04T00:54:17.417Z,1007.42
2017-08-04T00:55:27.345Z,1007.48
2017-08-04T00:56:37.564Z,1007.52
2017-08-04T00:57:47.782Z,1007.52
2017-08-04T00:58:57.696Z,1007.58
2017-08-04T01:00:07.610Z,1007.55
2017-08-04T01:01:16.932Z,1007.53
2017-08-04T01:02:26.265Z,1007.54
2017-08-04T01:03:35.878Z,1007.55
2017-08-04T01:04:45.493Z,1007.5
2017-08-04T01:05:55.733Z,1007.49
2017-08-04T01:07:04.740Z,1007.5
2017-08-04T01:08:14.666Z,1007.48
2017-08-04T01:09:24.879Z,1007.48
2017-08-04T01:10:35.100Z,1007.49
2017-08-04T01:11:45.018Z,1007.48
2017-08-04T01:12:54.924Z,1007.46
2017-08-04T01:14:05.149Z,1007.41
2017-08-04T01:15:14.464Z,1007.47
2017-08-04T01:16:24.703Z,1007.46
2017-08-04T01:17:34.642Z,1007.46
2017-08-04T01:18:44.574Z,1007.5
2017-08-04T01:19:54.784Z,1007.52
2017-08-04T01:21:05.000Z,1007.49
2017-08-04T01:22:14.310Z,1007.52
2017-08-04T01:23:24.551Z,1007.55
2017-08-04T01:24:34.787Z,1007.57
2017-08-04T01:25:44.104Z,1007.56
2017-08-04T01:26:53.708Z,1007.57
2017-08-04T01:28:03.322Z,1007.52
2017-08-04T01:29:13.234Z,1007.55
2017-08-04T01:30:23.151Z,1007.57
2017-08-04T01:31:33.422Z,1007.56
2017-08-04T01:32:43.646Z,1007.68
2017-08-04T01:33:54.109Z,1007.67
2017-08-04T01:35:04.036Z,1007.65
2017-08-04T01:36:13.955Z,1007.62
2017-08-04T01:37:24.216Z,1007.57
2017-08-04T01:38:34.136Z,1007.63
2017-08-04T01:39:43.450Z,1007.63
2017-08-04T01:40:53.692Z,1007.62
2017-08-04T01:42:03.605Z,1007.64
2017-08-04T01:43:13.530Z,1007.67
2017-08-04T01:44:23.441Z,1007.66
2017-08-04T01:45:33.655Z,1007.69
2017-08-04T01:46:43.893Z,1007.71
2017-08-04T01:47:53.200Z,1007.7
2017-08-04T01:49:03.105Z,1007.75
2017-08-04T01:50:13.025Z,1007.74
2017-08-04T01:51:23.247Z,1007.74
2017-08-04T01:52:33.172Z,1007.75
2017-08-04T01:53:42.782Z,1007.75
2017-08-04T01:54:53.016Z,1007.74
2017-08-04T01:56:02.641Z,1007.73
2017-08-04T01:57:12.562Z,1007.73
2017-08-04T01:58:22.499Z,1007.7
2017-08-04T01:59:32.716Z,1007.71
2017-08-04T02:00:42.318Z,1007.65
2017-08-04T02:01:52.544Z,1007.65
2017-08-04T02:03:02.778Z,1007.7
2017-08-04T02:04:12.404Z,1007.7
2017-08-04T02:05:22.016Z,1007.71
2017-08-04T02:06:31.626Z,1007.72
2017-08-04T02:07:41.849Z,1007.72
2017-08-04T02:08:51.778Z,1007.73
2017-08-04T02:10:01.411Z,1007.76
2017-08-04T02:11:11.333Z,1007.75
2017-08-04T02:12:21.245Z,1007.75
2017-08-04T02:13:31.490Z,1007.75
2017-08-04T02:14:41.716Z,1007.73
2017-08-04T02:15:51.941Z,1007.76
2017-08-04T02:17:02.159Z,1007.72
2017-08-04T02:18:12.376Z,1007.74
2017-08-04T02:19:22.394Z,1007.74
2017-08-04T02:20:32.625Z,1007.76
2017-08-04T02:21:42.464Z,1007.81
2017-08-04T02:22:52.086Z,1007.77
2017-08-04T02:24:02.011Z,1007.76
2017-08-04T02:25:11.968Z,1007.78
2017-08-04T02:26:21.903Z,1007.76
2017-08-04T02:27:32.139Z,1007.8
2017-08-04T02:28:42.354Z,1007.76
2017-08-04T02:29:52.281Z,1007.74
2017-08-04T02:31:02.198Z,1007.78
2017-08-04T02:32:12.441Z,1007.74
2017-08-04T02:33:22.681Z,1007.75
2017-08-04T02:34:32.292Z,1007.8
2017-08-04T02:35:42.206Z,1007.79
2017-08-04T02:36:51.845Z,1007.8
2017-08-04T02:38:01.778Z,1007.75
2017-08-04T02:39:11.992Z,1007.73
2017-08-04T02:40:21.905Z,1007.74
2017-08-04T02:41:31.512Z,1007.74
2017-08-04T02:42:41.745Z,1007.69
2017-08-04T02:43:51.656Z,1007.7
2017-08-04T02:45:01.580Z,1007.69
2017-08-04T02:46:11.504Z,1007.69
2017-08-04T02:47:21.430Z,1007.71
2017-08-04T02:48:31.354Z,1007.72
2017-08-04T02:49:41.620Z,1007.72
2017-08-04T02:50:51.843Z,1007.7
2017-08-04T02:52:01.772Z,1007.73
2017-08-04T02:53:12.015Z,1007.69
2017-08-04T02:54:22.247Z,1007.69
2017-08-04T02:55:32.167Z,1007.64
2017-08-04T02:56:42.412Z,1007.65
2017-08-04T02:57:52.330Z,1007.7
2017-08-04T02:59:02.573Z,1007.73
2017-08-04T03:00:12.497Z,1007.72
2017-08-04T03:01:22.421Z,1007.73
2017-08-04T03:02:32.345Z,1007.77
2017-08-04T03:03:42.563Z,1007.72
2017-08-04T03:04:52.478Z,1007.68
2017-08-04T03:06:02.761Z,1007.72
2017-08-04T03:07:12.702Z,1007.74
2017-08-04T03:08:22.309Z,1007.71
2017-08-04T03:09:32.222Z,1007.77
2017-08-04T03:10:41.832Z,1007.72
2017-08-04T03:11:52.066Z,1007.77
2017-08-04T03:13:01.988Z,1007.76
2017-08-04T03:14:11.899Z,1007.75
2017-08-04T03:15:21.824Z,1007.78
2017-08-04T03:16:31.737Z,1007.73
2017-08-04T03:17:41.347Z,1007.72
2017-08-04T03:18:51.258Z,1007.76
2017-08-04T03:20:01.489Z,1007.74
2017-08-04T03:21:11.096Z,1007.74
2017-08-04T03:22:21.020Z,1007.71
2017-08-04T03:23:30.621Z,1007.74
2017-08-04T03:24:40.531Z,1007.71
2017-08-04T03:25:50.749Z,1007.7
2017-08-04T03:27:00.969Z,1007.73
2017-08-04T03:28:11.197Z,1007.72
2017-08-04T03:29:21.253Z,1007.69
2017-08-04T03:30:31.481Z,1007.69
2017-08-04T03:31:41.704Z,1007.7
2017-08-04T03:32:51.648Z,1007.71
2017-08-04T03:34:01.251Z,1007.71
2017-08-04T03:35:10.561Z,1007.67
2017-08-04T03:36:20.182Z,1007.69
2017-08-04T03:37:30.408Z,1007.68
2017-08-04T03:38:40.336Z,1007.63
2017-08-04T03:39:50.277Z,1007.68
2017-08-04T03:40:59.884Z,1007.67
2017-08-04T03:42:09.791Z,1007.69
2017-08-04T03:43:19.393Z,1007.64
2017-08-04T03:44:29.011Z,1007.61
2017-08-04T03:45:38.924Z,1007.57
2017-08-04T03:46:48.833Z,1007.57
2017-08-04T03:47:59.051Z,1007.58
2017-08-04T03:49:08.648Z,1007.61
2017-08-04T03:50:18.880Z,1007.62
2017-08-04T03:51:28.483Z,1007.61
2017-08-04T03:52:38.410Z,1007.63
2017-08-04T03:53:48.633Z,1007.65
2017-08-04T03:54:58.855Z,1007.69
2017-08-04T03:56:08.770Z,1007.67
2017-08-04T03:57:18.688Z,1007.67
2017-08-04T03:58:28.910Z,1007.65
2017-08-04T03:59:38.821Z,1007.72
2017-08-04T04:00:48.437Z,1007.73
2017-08-04T04:01:58.050Z,1007.75
2017-08-04T04:03:08.269Z,1007.77
2017-08-04T04:04:17.886Z,1007.75
2017-08-04T04:05:28.117Z,1007.73
2017-08-04T04:06:37.737Z,1007.72
2017-08-04T04:07:47.351Z,1007.73
2017-08-04T04:08:57.608Z,1007.75
2017-08-04T04:10:07.844Z,1007.7
2017-08-04T04:11:17.476Z,1007.7
2017-08-04T04:12:27.077Z,1007.69
2017-08-04T04:13:37.299Z,1007.71
2017-08-04T04:14:47.212Z,1007.69
2017-08-04T04:15:57.136Z,1007.72
2017-08-04T04:17:07.358Z,1007.71
2017-08-04T04:18:16.981Z,1007.75
2017-08-04T04:19:27.213Z,1007.74
2017-08-04T04:20:37.127Z,1007.8
2017-08-04T04:21:47.035Z,1007.77
2017-08-04T04:22:56.983Z,1007.8
2017-08-04T04:24:06.919Z,1007.81
2017-08-04T04:25:16.560Z,1007.78
2017-08-04T04:26:26.494Z,1007.77
2017-08-04T04:27:36.713Z,1007.81
2017-08-04T04:28:47.002Z,1007.8
2017-08-04T04:29:57.358Z,1007.81
2017-08-04T04:31:07.595Z,1007.78
2017-08-04T04:32:17.209Z,1007.81
2017-08-04T04:33:26.558Z,1007.82
2017-08-04T04:34:36.483Z,1007.82
2017-08-04T04:35:46.391Z,1007.79
2017-08-04T04:36:56.611Z,1007.8
2017-08-04T04:38:06.537Z,1007.82
2017-08-04T04:39:16.139Z,1007.82
2017-08-04T04:40:26.088Z,1007.85
2017-08-04T04:41:35.727Z,1007.83
2017-08-04T04:42:45.949Z,1007.81
2017-08-04T04:43:56.174Z,1007.86
2017-08-04T04:45:05.795Z,1007.83
2017-08-04T04:46:16.019Z,1007.91
2017-08-04T04:47:26.239Z,1007.87
2017-08-04T04:48:35.567Z,1007.84
2017-08-04T04:49:45.496Z,1007.83
2017-08-04T04:50:55.450Z,1007.8
2017-08-04T04:52:05.369Z,1007.8
2017-08-04T04:53:15.294Z,1007.79
2017-08-04T04:54:25.227Z,1007.77
2017-08-04T04:55:34.854Z,1007.74
2017-08-04T04:56:45.089Z,1007.76
2017-08-04T04:57:54.996Z,1007.75
2017-08-04T04:59:04.915Z,1007.74
2017-08-04T05:00:14.848Z,1007.67
2017-08-04T05:01:24.745Z,1007.68
2017-08-04T05:02:34.659Z,1007.66
2017-08-04T05:03:44.593Z,1007.65
2017-08-04T05:04:54.205Z,1007.68
2017-08-04T05:06:03.824Z,1007.7
2017-08-04T05:07:13.748Z,1007.68
2017-08-04T05:08:23.998Z,1007.73
2017-08-04T05:09:34.242Z,1007.72
2017-08-04T05:10:44.487Z,1007.75
2017-08-04T05:11:54.409Z,1007.71
2017-08-04T05:13:04.356Z,1007.72
2017-08-04T05:14:13.662Z,1007.76
2017-08-04T05:15:23.901Z,1007.79
2017-08-04T05:16:33.850Z,1007.76
2017-08-04T05:17:43.780Z,1007.76
2017-08-04T05:18:53.710Z,1007.79
2017-08-04T05:20:03.046Z,1007.78
2017-08-04T05:21:12.677Z,1007.75
2017-08-04T05:22:22.286Z,1007.78
2017-08-04T05:23:31.586Z,1007.82
2017-08-04T05:24:41.507Z,1007.84
2017-08-04T05:25:51.759Z,1007.85
2017-08-04T05:27:01.364Z,1007.85
2017-08-04T05:28:11.295Z,1007.87
2017-08-04T05:29:21.534Z,1007.83
2017-08-04T05:30:31.749Z,1007.84
2017-08-04T05:31:41.350Z,1007.85
2017-08-04T05:32:51.261Z,1007.89
2017-08-04T05:34:01.478Z,1007.87
2017-08-04T05:35:11.707Z,1007.86
2017-08-04T05:36:21.618Z,1007.86
2017-08-04T05:37:31.541Z,1007.85
2017-08-04T05:38:41.765Z,1007.86
2017-08-04T05:39:51.680Z,1007.88
2017-08-04T05:41:01.292Z,1007.87
2017-08-04T05:42:11.522Z,1007.88
2017-08-04T05:43:22.152Z,1007.97
2017-08-04T05:44:32.082Z,1007.99
2017-08-04T05:45:42.329Z,1007.99
2017-08-04T05:46:51.941Z,1007.97
2017-08-04T05:48:01.554Z,1007.99
2017-08-04T05:49:11.582Z,1007.99
2017-08-04T05:50:21.501Z,1008.04
2017-08-04T05:51:30.788Z,1008.05
2017-08-04T05:52:40.707Z,1008.1
2017-08-04T05:53:50.628Z,1008.14
2017-08-04T05:55:00.238Z,1008.19
2017-08-04T05:56:10.165Z,1008.17
2017-08-04T05:57:20.086Z,1008.17
2017-08-04T05:58:30.000Z,1008.14
2017-08-04T05:59:39.919Z,1008.15
2017-08-04T06:00:50.133Z,1008.12
2017-08-04T06:02:00.062Z,1008.14
2017-08-04T06:03:09.692Z,1008.14
2017-08-04T06:04:19.616Z,1008.14
2017-08-04T06:05:29.572Z,1008.11
2017-08-04T06:06:40.171Z,1008.1
2017-08-04T06:07:50.393Z,1008.11
2017-08-04T06:09:00.008Z,1008.05
2017-08-04T06:10:10.284Z,1008.06
2017-08-04T06:11:20.598Z,1008.02
2017-08-04T06:12:30.582Z,1008.04
2017-08-04T06:13:41.193Z,1008.05
2017-08-04T06:14:50.550Z,1008.08
2017-08-04T06:16:00.170Z,1008.08
2017-08-04T06:17:09.776Z,1008.07
2017-08-04T06:18:19.685Z,1008.08
2017-08-04T06:19:29.905Z,1008.05
2017-08-04T06:20:39.534Z,1008.09
2017-08-04T06:21:49.148Z,1008.07
2017-08-04T06:22:59.385Z,1008.1
2017-08-04T06:24:09.625Z,1008.1
2017-08-04T06:25:19.853Z,1008.08
2017-08-04T06:26:29.468Z,1008.13
2017-08-04T06:27:39.693Z,1008.08
2017-08-04T06:28:49.314Z,1008.12
2017-08-04T06:29:59.556Z,1008.12
2017-08-04T06:31:09.779Z,1008.12
2017-08-04T06:32:20.031Z,1008.19
2017-08-04T06:33:30.032Z,1008.21
2017-08-04T06:34:39.959Z,1008.24
2017-08-04T06:35:49.879Z,1008.26
2017-08-04T06:37:00.111Z,1008.24
2017-08-04T06:38:10.030Z,1008.33
2017-08-04T06:39:19.644Z,1008.33
2017-08-04T06:40:29.910Z,1008.36
2017-08-04T06:41:40.134Z,1008.41
2017-08-04T06:42:50.362Z,1008.47
2017-08-04T06:44:00.592Z,1008.49
2017-08-04T06:45:10.535Z,1008.52
2017-08-04T06:46:20.475Z,1008.49
2017-08-04T06:47:30.097Z,1008.39
2017-08-04T06:48:40.328Z,1008.42
2017-08-04T06:49:50.249Z,1008.41
2017-08-04T06:50:59.855Z,1008.45
2017-08-04T06:52:09.771Z,1008.48
2017-08-04T06:53:19.695Z,1008.45
2017-08-04T06:54:29.923Z,1008.45
2017-08-04T06:55:39.882Z,1008.43
2017-08-04T06:56:49.800Z,1008.48
2017-08-04T06:57:59.106Z,1008.45
2017-08-04T06:59:08.736Z,1008.41
2017-08-04T07:00:18.658Z,1008.42
2017-08-04T07:01:28.880Z,1008.44
2017-08-04T07:02:38.817Z,1008.43
2017-08-04T07:03:49.073Z,1008.43
2017-08-04T07:04:58.996Z,1008.45
2017-08-04T07:06:08.604Z,1008.42
2017-08-04T07:07:17.908Z,1008.48
2017-08-04T07:08:27.518Z,1008.46
2017-08-04T07:09:37.137Z,1008.42
2017-08-04T07:10:46.785Z,1008.37
2017-08-04T07:11:56.421Z,1008.39
2017-08-04T07:13:05.727Z,1008.41
2017-08-04T07:14:15.645Z,1008.45
2017-08-04T07:15:25.268Z,1008.43
2017-08-04T07:16:35.195Z,1008.41
2017-08-04T07:17:45.128Z,1008.45
2017-08-04T07:18:54.730Z,1008.49
2017-08-04T07:20:03.729Z,1008.47
2017-08-04T07:21:13.363Z,1008.47
2017-08-04T07:22:22.740Z,1008.47
2017-08-04T07:23:32.645Z,1008.47
2017-08-04T07:24:42.556Z,1008.48
2017-08-04T07:25:51.865Z,1008.49
2017-08-04T07:27:01.788Z,1008.45
2017-08-04T07:28:11.751Z,1008.45
2017-08-04T07:29:21.358Z,1008.41
2017-08-04T07:30:31.581Z,1008.43
2017-08-04T07:31:41.810Z,1008.48
2017-08-04T07:32:52.053Z,1008.52
2017-08-04T07:34:02.285Z,1008.44
2017-08-04T07:35:11.910Z,1008.44
2017-08-04T07:36:21.517Z,1008.41
2017-08-04T07:37:31.758Z,1008.46
2017-08-04T07:38:41.688Z,1008.51
2017-08-04T07:39:51.911Z,1008.46
2017-08-04T07:41:02.148Z,1008.48
2017-08-04T07:42:12.373Z,1008.46
2017-08-04T07:43:21.994Z,1008.46
2017-08-04T07:44:31.911Z,1008.43
2017-08-04T07:45:41.836Z,1008.44
2017-08-04T07:46:51.762Z,1008.46
2017-08-04T07:48:01.674Z,1008.46
2017-08-04T07:49:10.669Z,1008.5
2017-08-04T07:50:20.593Z,1008.49
2017-08-04T07:51:30.820Z,1008.43
2017-08-04T07:52:40.740Z,1008.39
2017-08-04T07:53:50.677Z,1008.36
2017-08-04T07:55:00.912Z,1008.4
2017-08-04T07:56:10.834Z,1008.41
2017-08-04T07:57:20.753Z,1008.45
2017-08-04T07:58:30.692Z,1008.39
2017-08-04T07:59:39.996Z,1008.37
2017-08-04T08:00:50.218Z,1008.31
2017-08-04T08:02:00.131Z,1008.28
2017-08-04T08:03:09.745Z,1008.25
2017-08-04T08:04:19.969Z,1008.27
2017-08-04T08:05:30.184Z,1008.27
2017-08-04T08:06:39.795Z,1008.21
2017-08-04T08:07:50.022Z,1008.24
2017-08-04T08:09:00.257Z,1008.26
2017-08-04T08:10:10.479Z,1008.25
2017-08-04T08:11:20.088Z,1008.28
2017-08-04T08:12:29.717Z,1008.26
2017-08-04T08:13:39.360Z,1008.25
2017-08-04T08:14:49.309Z,1008.27
2017-08-04T08:15:59.552Z,1008.3
2017-08-04T08:17:09.478Z,1008.33
2017-08-04T08:18:19.087Z,1008.35
2017-08-04T08:19:29.007Z,1008.32
2017-08-04T08:20:38.319Z,1008.31
2017-08-04T08:21:48.632Z,1008.28
2017-08-04T08:22:58.276Z,1008.34
2017-08-04T08:24:08.550Z,1008.36
2017-08-04T08:25:17.887Z,1008.35
2017-08-04T08:26:27.832Z,1008.42
2017-08-04T08:27:38.106Z,1008.38
2017-08-04T08:28:48.038Z,1008.35
2017-08-04T08:29:58.267Z,1008.42
2017-08-04T08:31:08.512Z,1008.41
2017-08-04T08:32:18.441Z,1008.43
2017-08-04T08:33:28.384Z,1008.39
2017-08-04T08:34:38.317Z,1008.45
2017-08-04T08:35:48.545Z,1008.38
2017-08-04T08:36:58.467Z,1008.31
2017-08-04T08:38:08.406Z,1008.39
2017-08-04T08:39:18.071Z,1008.36
2017-08-04T08:40:28.016Z,1008.38
2017-08-04T08:41:37.943Z,1008.45
2017-08-04T08:42:48.185Z,1008.48
2017-08-04T08:43:57.808Z,1008.5
2017-08-04T08:45:07.445Z,1008.49
2017-08-04T08:46:17.362Z,1008.42
2017-08-04T08:47:27.286Z,1008.45
2017-08-04T08:48:37.517Z,1008.49
2017-08-04T08:49:47.756Z,1008.53
2017-08-04T08:50:57.375Z,1008.46
2017-08-04T08:52:07.621Z,1008.46
2017-08-04T08:53:17.559Z,1008.49
2017-08-04T08:54:27.480Z,1008.45
2017-08-04T08:55:37.088Z,1008.44
2017-08-04T08:56:46.702Z,1008.38
2017-08-04T08:57:56.312Z,1008.37
2017-08-04T08:59:06.548Z,1008.39
2017-08-04T09:00:16.771Z,1008.4
2017-08-04T09:01:26.704Z,1008.38
2017-08-04T09:02:36.626Z,1008.34
2017-08-04T09:03:46.894Z,1008.37
2017-08-04T09:04:56.520Z,1008.36
2017-08-04T09:06:06.132Z,1008.34
2017-08-04T09:07:15.733Z,1008.38
2017-08-04T09:08:25.952Z,1008.36
2017-08-04T09:09:36.195Z,1008.39
2017-08-04T09:10:46.430Z,1008.42
2017-08-04T09:11:56.662Z,1008.46
2017-08-04T09:13:06.595Z,1008.53
2017-08-04T09:14:16.529Z,1008.5
2017-08-04T09:15:26.454Z,1008.43
2017-08-04T09:16:36.374Z,1008.44
2017-08-04T09:17:46.297Z,1008.41
2017-08-04T09:18:56.536Z,1008.42
2017-08-04T09:20:06.761Z,1008.45
2017-08-04T09:21:16.680Z,1008.43
2017-08-04T09:22:26.905Z,1008.49
2017-08-04T09:23:36.825Z,1008.49
2017-08-04T09:24:46.131Z,1008.49
2017-08-04T09:25:56.039Z,1008.44
2017-08-04T09:27:06.018Z,1008.48
2017-08-04T09:28:16.297Z,1008.49
2017-08-04T09:29:26.230Z,1008.48
2017-08-04T09:30:36.160Z,1008.45
2017-08-04T09:31:46.076Z,1008.41
2017-08-04T09:32:56.304Z,1008.41
2017-08-04T09:34:05.915Z,1008.44
2017-08-04T09:35:15.236Z,1008.45
2017-08-04T09:36:25.461Z,1008.47
2017-08-04T09:37:35.079Z,1008.53
2017-08-04T09:38:45.004Z,1008.55
2017-08-04T09:39:54.618Z,1008.52
2017-08-04T09:41:03.933Z,1008.54
2017-08-04T09:42:14.159Z,1008.5
2017-08-04T09:43:24.080Z,1008.56
2017-08-04T09:44:34.306Z,1008.55
2017-08-04T09:45:44.225Z,1008.57
2017-08-04T09:46:53.837Z,1008.57
2017-08-04T09:48:03.757Z,1008.52
2017-08-04T09:49:13.693Z,1008.57
2017-08-04T09:50:23.309Z,1008.62
2017-08-04T09:51:32.940Z,1008.61
2017-08-04T09:52:42.772Z,1008.59
2017-08-04T09:53:52.698Z,1008.62
2017-08-04T09:55:02.308Z,1008.62
2017-08-04T09:56:12.550Z,1008.56
2017-08-04T09:57:22.184Z,1008.53
2017-08-04T09:58:32.403Z,1008.52
2017-08-04T09:59:42.640Z,1008.59
2017-08-04T10:00:52.908Z,1008.66
2017-08-04T10:02:02.547Z,1008.63
2017-08-04T10:03:12.152Z,1008.61
2017-08-04T10:04:22.383Z,1008.65
2017-08-04T10:05:32.334Z,1008.65
2017-08-04T10:06:42.258Z,1008.65
2017-08-04T10:07:51.907Z,1008.6
2017-08-04T10:09:02.133Z,1008.5
2017-08-04T10:10:11.447Z,1008.47
2017-08-04T10:11:21.375Z,1008.46
2017-08-04T10:12:31.630Z,1008.47
2017-08-04T10:13:41.571Z,1008.5
2017-08-04T10:14:51.497Z,1008.51
2017-08-04T10:16:01.122Z,1008.51
2017-08-04T10:17:11.057Z,1008.48
2017-08-04T10:18:20.675Z,1008.49
2017-08-04T10:19:30.612Z,1008.5
2017-08-04T10:20:40.558Z,1008.52
2017-08-04T10:21:50.795Z,1008.52
2017-08-04T10:23:01.048Z,1008.52
2017-08-04T10:24:11.010Z,1008.49
2017-08-04T10:25:21.263Z,1008.53
2017-08-04T10:26:31.540Z,1008.46
2017-08-04T10:27:41.504Z,1008.5
2017-08-04T10:28:51.753Z,1008.46
2017-08-04T10:30:02.045Z,1008.54
2017-08-04T10:31:11.991Z,1008.49
2017-08-04T10:32:21.964Z,1008.54
2017-08-04T10:33:32.248Z,1008.54
2017-08-04T10:34:41.891Z,1008.47
2017-08-04T10:35:51.527Z,1008.42
2017-08-04T10:37:01.798Z,1008.4
2017-08-04T10:38:11.719Z,1008.47
2017-08-04T10:39:21.657Z,1008.46
2017-08-04T10:40:32.280Z,1008.47
2017-08-04T10:41:41.944Z,1008.41
2017-08-04T10:42:52.214Z,1008.37
2017-08-04T10:44:02.135Z,1008.38
2017-08-04T10:45:11.763Z,1008.38
2017-08-04T10:46:21.686Z,1008.43
2017-08-04T10:47:31.948Z,1008.43
2017-08-04T10:48:42.224Z,1008.43
2017-08-04T10:49:51.843Z,1008.39
2017-08-04T10:51:01.788Z,1008.39
2017-08-04T10:52:11.739Z,1008.28
2017-08-04T10:53:21.664Z,1008.29
2017-08-04T10:54:31.580Z,1008.33
2017-08-04T10:55:40.886Z,1008.32
2017-08-04T10:56:50.502Z,1008.34
2017-08-04T10:57:59.852Z,1008.35
2017-08-04T10:59:09.177Z,1008.38
2017-08-04T11:00:19.138Z,1008.38
2017-08-04T11:01:29.120Z,1008.36
2017-08-04T11:02:39.112Z,1008.36
2017-08-04T11:03:48.466Z,1008.38
2017-08-04T11:04:58.419Z,1008.38
2017-08-04T11:06:08.367Z,1008.41
2017-08-04T11:07:18.344Z,1008.4
2017-08-04T11:08:28.303Z,1008.43
2017-08-04T11:09:38.275Z,1008.45
2017-08-04T11:10:48.235Z,1008.41
2017-08-04T11:11:58.467Z,1008.39
2017-08-04T11:13:08.145Z,1008.37
2017-08-04T11:14:18.127Z,1008.36
2017-08-04T11:15:28.066Z,1008.38
2017-08-04T11:16:38.004Z,1008.34
2017-08-04T11:17:48.228Z,1008.37
2017-08-04T11:18:58.475Z,1008.36
2017-08-04T11:20:08.722Z,1008.37
2017-08-04T11:21:18.696Z,1008.39
2017-08-04T11:22:28.008Z,1008.31
2017-08-04T11:23:37.947Z,1008.35
2017-08-04T11:24:47.574Z,1008.35
2017-08-04T11:25:57.492Z,1008.41
2017-08-04T11:27:07.415Z,1008.42
2017-08-04T11:28:17.072Z,1008.44
2017-08-04T11:29:26.092Z,1008.34
2017-08-04T11:30:35.407Z,1008.27
2017-08-04T11:31:45.025Z,1008.37
2017-08-04T11:32:55.256Z,1008.4
2017-08-04T11:34:05.490Z,1008.43
2017-08-04T11:35:14.487Z,1008.45
2017-08-04T11:36:24.720Z,1008.43
2017-08-04T11:37:34.641Z,1008.41
2017-08-04T11:38:44.864Z,1008.41
2017-08-04T11:39:55.117Z,1008.37
2017-08-04T11:41:05.064Z,1008.42
2017-08-04T11:42:14.988Z,1008.46
2017-08-04T11:43:23.990Z,1008.44
2017-08-04T11:44:33.921Z,1008.48
2017-08-04T11:45:43.541Z,1008.45
2017-08-04T11:46:53.169Z,1008.48
2017-08-04T11:48:03.090Z,1008.5
2017-08-04T11:49:13.054Z,1008.46
2017-08-04T11:50:22.378Z,1008.45
2017-08-04T11:51:32.618Z,1008.52
2017-08-04T11:52:42.544Z,1008.54
2017-08-04T11:53:52.795Z,1008.56
2017-08-04T11:55:02.121Z,1008.54
2017-08-04T11:56:12.423Z,1008.6
2017-08-04T11:57:22.659Z,1008.66
2017-08-04T11:58:32.579Z,1008.61
2017-08-04T11:59:42.211Z,1008.61
2017-08-04T12:00:52.142Z,1008.65
2017-08-04T12:02:02.074Z,1008.59
2017-08-04T12:03:11.693Z,1008.67
2017-08-04T12:04:21.621Z,1008.64
2017-08-04T12:05:31.841Z,1008.66
2017-08-04T12:06:41.456Z,1008.62
2017-08-04T12:07:51.720Z,1008.67
2017-08-04T12:09:01.739Z,1008.62
2017-08-04T12:10:11.718Z,1008.66
2017-08-04T12:11:21.377Z,1008.62
2017-08-04T12:12:31.641Z,1008.62
2017-08-04T12:13:40.995Z,1008.6
2017-08-04T12:14:50.937Z,1008.64
2017-08-04T12:16:01.236Z,1008.63
2017-08-04T12:17:11.580Z,1008.58
2017-08-04T12:18:20.959Z,1008.66
2017-08-04T12:19:31.236Z,1008.7
2017-08-04T12:20:40.877Z,1008.72
2017-08-04T12:21:50.563Z,1008.71
2017-08-04T12:23:00.226Z,1008.75
2017-08-04T12:24:10.182Z,1008.72
2017-08-04T12:25:20.125Z,1008.74
2017-08-04T12:26:29.768Z,1008.8
2017-08-04T12:27:40.023Z,1008.75
2017-08-04T12:28:50.260Z,1008.79
2017-08-04T12:30:00.241Z,1008.8
2017-08-04T12:31:10.496Z,1008.83
2017-08-04T12:32:20.817Z,1008.85
2017-08-04T12:33:30.815Z,1008.83
2017-08-04T12:34:41.094Z,1008.76
2017-08-04T12:35:51.584Z,1008.85
2017-08-04T12:37:01.523Z,1008.78
2017-08-04T12:38:11.499Z,1008.78
2017-08-04T12:39:21.450Z,1008.73
2017-08-04T12:40:31.401Z,1008.79
2017-08-04T12:41:41.694Z,1008.73
2017-08-04T12:42:51.975Z,1008.79
2017-08-04T12:44:02.239Z,1008.81
2017-08-04T12:45:11.860Z,1008.89
2017-08-04T12:46:22.094Z,1008.79
2017-08-04T12:47:32.046Z,1008.85
2017-08-04T12:48:41.990Z,1008.84
2017-08-04T12:49:52.237Z,1008.86
2017-08-04T12:51:01.855Z,1008.91
2017-08-04T12:52:12.079Z,1008.85
2017-08-04T12:53:22.025Z,1008.85
2017-08-04T12:54:31.970Z,1008.85
2017-08-04T12:55:41.923Z,1008.87
2017-08-04T12:56:51.869Z,1008.9
2017-08-04T12:58:01.790Z,1008.84
2017-08-04T12:59:12.033Z,1008.89
2017-08-04T13:00:21.807Z,1008.92
2017-08-04T13:01:32.070Z,1008.91
2017-08-04T13:02:42.048Z,1008.92
2017-08-04T13:03:52.314Z,1008.92
2017-08-04T13:05:02.559Z,1008.92
2017-08-04T13:06:12.844Z,1009.06
2017-08-04T13:07:22.761Z,1009.08
2017-08-04T13:08:32.976Z,1008.95
2017-08-04T13:09:42.899Z,1009.01
2017-08-04T13:10:52.511Z,1008.95
2017-08-04T13:12:02.735Z,1009
2017-08-04T13:13:12.999Z,1008.96
2017-08-04T13:14:22.657Z,1009.01
2017-08-04T13:15:32.353Z,1008.92
2017-08-04T13:16:41.676Z,1008.95
2017-08-04T13:17:51.596Z,1009
2017-08-04T13:19:01.527Z,1009.03
2017-08-04T13:20:11.757Z,1009.02
2017-08-04T13:21:21.092Z,1009
2017-08-04T13:22:31.314Z,1008.96
2017-08-04T13:23:41.251Z,1008.99
2017-08-04T13:24:50.879Z,1008.96
2017-08-04T13:26:00.492Z,1009.06
2017-08-04T13:27:10.108Z,1009.03
2017-08-04T13:28:19.714Z,1009.06
2017-08-04T13:29:29.932Z,1009
2017-08-04T13:30:39.539Z,1008.98
2017-08-04T13:31:48.855Z,1008.95
2017-08-04T13:32:58.790Z,1008.94
2017-08-04T13:34:08.393Z,1008.96
2017-08-04T13:35:18.027Z,1009.06
2017-08-04T13:36:27.961Z,1009.09
2017-08-04T13:37:37.579Z,1009.01
2017-08-04T13:38:47.801Z,1008.99
2017-08-04T13:39:57.717Z,1008.97
2017-08-04T13:41:07.679Z,1008.98
2017-08-04T13:42:17.597Z,1008.99
2017-08-04T13:43:27.834Z,1009.01
2017-08-04T13:44:37.747Z,1008.96
2017-08-04T13:45:47.968Z,1008.96
2017-08-04T13:46:57.592Z,1008.97
2017-08-04T13:48:07.198Z,1009.1
2017-08-04T13:49:17.121Z,1009.06
2017-08-04T13:50:27.349Z,1009.09
2017-08-04T13:51:37.265Z,1009.05
2017-08-04T13:52:46.883Z,1009.04
2017-08-04T13:53:56.804Z,1009
2017-08-04T13:55:06.129Z,1008.95
2017-08-04T13:56:16.055Z,1009.01
2017-08-04T13:57:26.299Z,1008.94
2017-08-04T13:58:35.616Z,1009
2017-08-04T13:59:45.549Z,1008.96
2017-08-04T14:00:54.866Z,1008.99
2017-08-04T14:02:04.812Z,1008.97
2017-08-04T14:03:14.751Z,1008.95
2017-08-04T14:04:24.673Z,1008.97
2017-08-04T14:05:34.606Z,1009
2017-08-04T14:06:44.515Z,1008.93
2017-08-04T14:07:53.814Z,1008.92